CST,Max TemperatureF,Mean TemperatureF,Min TemperatureF,Max Dew PointF,MeanDew PointF,Min DewpointF,Max Humidity, Mean Humidity, Min Humidity, Max Sea Level PressureIn, Mean Sea Level PressureIn, Min Sea Level PressureIn, Max VisibilityMiles, Mean VisibilityMiles, Min VisibilityMiles, Max Wind SpeedMPH, Mean Wind SpeedMPH, Max Gust SpeedMPH,PrecipitationIn, CloudCover, Events, WindDirDegrees
2013-6-1,82,75,68,70,66,63,94,85,56,30.05,29.98,29.83,12,7,1,12,4,,0.08,6,Fog-Rain-Thunderstorm,122
2013-6-2,83,73,63,68,65,61,94,76,48,30.05,29.98,29.82,12,7,6,13,5,,0.00,4,,225
2013-6-3,82,73,64,70,67,62,100,84,57,30.03,29.94,29.79,12,6,0,9,3,,0.00,5,Fog,249
2013-6-4,84,74,65,72,66,63,100,83,41,30.03,29.96,29.80,12,7,2,13,5,,1.30,6,Fog-Rain-Thunderstorm,180
2013-6-5,79,72,64,70,66,61,96,84,60,30.06,29.96,29.81,12,7,2,16,6,,0.00,6,Fog-Rain,266
2013-6-6,85,74,64,70,66,61,96,78,41,30.00,29.93,29.79,12,6,0,21,7,,1.34,6,Fog-Rain-Hail-Thunderstorm,157
2013-6-7,82,72,63,70,66,61,100,80,48,30.03,29.93,29.76,12,6,0,12,5,,0.24,4,Fog-Rain,248
2013-6-8,84,74,65,70,64,61,95,74,45,30.01,29.93,29.76,12,8,6,16,6,30,0.00,5,Fog-Rain,82
2013-6-9,85,75,65,70,64,59,94,71,39,30.02,29.94,29.77,12,8,3,12,5,,0.00,5,Fog,96
2013-6-10,82,74,66,70,65,61,94,82,61,30.02,29.97,29.82,12,6,1,17,6,,0.08,5,Fog-Rain,302
2013-6-11,85,74,62,72,64,59,94,75,35,30.05,29.98,29.82,12,6,0,14,6,,0.08,5,Fog-Rain,318
2013-6-12,84,76,67,70,66,61,94,79,43,30.07,29.98,29.82,12,6,0,12,5,,0.00,5,Fog,73
2013-6-13,86,76,67,70,67,64,95,87,65,30.05,29.97,29.83,12,6,2,14,8,,0.08,6,Fog-Rain,232
2013-6-14,84,74,64,70,66,61,94,81,51,30.04,29.94,29.78,12,7,1,14,5,,0.47,5,Fog-Rain-Thunderstorm,236
2013-6-15,84,76,68,70,67,63,100,80,44,30.02,29.95,29.79,12,6,0,16,6,,0.43,5,Fog-Rain,272
2013-6-16,83,74,64,72,67,61,100,81,43,30.02,29.93,29.77,12,6,1,16,5,,0.35,6,Fog-Rain-Thunderstorm,244
2013-6-17,82,74,66,70,67,63,94,79,46,30.00,29.93,29.77,12,7,6,10,5,,0.00,4,Fog-Rain-Thunderstorm,112
2013-6-18,84,76,67,72,67,64,100,83,58,30.06,29.94,29.76,12,6,1,29,6,,1.97,6,Fog-Rain-Thunderstorm,278
2013-6-19,81,73,65,70,66,62,100,83,55,30.00,29.91,29.74,12,7,1,12,6,,1.06,5,Fog-Rain-Thunderstorm,288
2013-6-20,81,72,64,68,65,61,94,78,51,30.02,29.93,29.75,12,8,6,12,5,,0.00,6,Rain,63
2013-6-21,81,74,66,70,66,61,94,77,44,30.05,29.95,29.78,12,7,2,16,5,,0.35,6,Fog-Rain-Thunderstorm,106
2013-6-22,86,76,65,66,62,59,94,63,37,30.03,29.94,29.79,12,8,6,18,7,24,0.00,5,,89
2013-6-23,83,75,67,66,60,57,73,58,35,30.06,29.95,29.79,12,8,6,20,12,23,0.00,4,,96
2013-6-24,83,74,66,70,63,61,94,70,40,30.07,29.99,29.79,12,8,3,10,5,,0.24,7,Rain,84
2013-6-25,78,72,66,70,64,59,94,75,61,30.07,30.00,29.85,12,7,1,15,6,26,0.28,5,Rain-Thunderstorm,149
2013-6-26,85,74,62,70,64,57,100,74,38,30.04,29.97,29.81,12,8,1,16,7,20,0.94,4,Rain-Thunderstorm,85
2013-6-27,80,73,66,70,65,63,94,76,54,30.06,29.98,29.81,12,8,5,9,5,,0.02,6,Fog-Rain-Snow,93
2013-6-28,80,73,66,68,64,59,94,76,52,30.06,29.98,29.81,12,8,6,20,7,,0.00,6,Fog,126
2013-6-29,81,72,63,66,63,61,100,81,48,30.09,29.99,29.80,12,6,0,14,5,,0.59,6,Fog-Rain-Thunderstorm,206
2013-6-30,81,72,64,68,64,61,94,80,48,30.08,29.99,29.82,12,8,6,20,6,,0.00,5,Fog-Rain,248